createdAt,value
2017-09-03T03:16:20.302Z,25.28
2017-09-03T03:18:47.152Z,25.12
2017-09-03T08:56:12.285Z,33.74
2017-09-03T09:18:20.626Z,33.12
2017-09-03T09:20:46.911Z,33.60
2017-09-03T09:23:13.194Z,33.72
2017-09-03T09:25:39.494Z,33.65
2017-09-03T09:28:07.606Z,34.09
2017-09-03T09:30:34.072Z,34.41
2017-09-03T09:33:08.525Z,34.35
2017-09-03T09:35:34.920Z,34.13
2017-09-03T09:38:04.201Z,33.87
2017-09-03T09:40:32.706Z,33.71
2017-09-03T09:42:59.049Z,33.91
2017-09-03T09:45:30.750Z,34.42
2017-09-03T09:47:57.373Z,33.98
2017-09-03T09:50:25.971Z,33.99
2017-09-03T09:52:52.216Z,33.90
2017-09-03T09:55:19.798Z,34.24
2017-09-03T09:57:49.270Z,34.33
2017-09-03T10:00:15.695Z,34.76
2017-09-03T10:02:42.148Z,35.40
2017-09-03T10:05:09.437Z,34.78
2017-09-03T10:07:35.875Z,35.17
2017-09-03T10:10:02.345Z,35.66
2017-09-03T10:12:30.459Z,36.08
2017-09-03T10:14:59.953Z,35.72
2017-09-03T10:17:26.307Z,35.65
2017-09-03T10:20:00.589Z,35.04
2017-09-03T10:22:28.026Z,34.71
2017-09-03T10:24:54.419Z,34.27
2017-09-03T10:27:20.880Z,33.38
2017-09-03T10:29:48.144Z,33.77
2017-09-03T10:32:21.487Z,34.89
2017-09-03T10:34:48.977Z,35.56
2017-09-03T10:37:15.424Z,35.73
2017-09-03T10:45:12.925Z,35.62
2017-09-03T10:47:41.648Z,35.05
2017-09-03T10:50:11.288Z,35.09
2017-09-03T10:55:26.588Z,36.03
2017-09-03T10:57:53.408Z,36.74
2017-09-03T11:03:05.052Z,36.41
2017-09-03T11:05:31.307Z,35.94
2017-09-03T11:07:58.917Z,35.94
2017-09-03T11:12:56.089Z,32.44
2017-09-03T11:15:23.442Z,30.81
2017-09-03T11:17:49.967Z,29.77
2017-09-03T11:20:16.489Z,29.21
2017-09-03T11:22:42.860Z,29.02
2017-09-03T11:25:16.491Z,29.14
2017-09-03T11:27:42.918Z,29.77
2017-09-03T11:30:20.377Z,30.68
2017-09-03T11:32:47.769Z,31.24
2017-09-03T11:35:16.180Z,31.58
2017-09-03T11:37:42.529Z,31.20
2017-09-03T11:40:10.042Z,31.40
2017-09-03T11:42:37.252Z,32.12
2017-09-03T11:45:03.669Z,32.68
2017-09-03T11:47:30.056Z,33.46
2017-09-03T11:49:56.799Z,33.82
2017-09-03T11:52:23.122Z,34.09
2017-09-03T11:54:49.419Z,34.39
2017-09-03T11:57:16.870Z,34.44
2017-09-03T11:59:43.559Z,34.08
2017-09-03T12:02:10.214Z,33.35
2017-09-03T12:04:36.630Z,33.54
2017-09-03T12:07:02.983Z,34.68
2017-09-03T12:09:32.470Z,34.69
2017-09-03T12:11:58.865Z,34.82
2017-09-03T12:14:25.488Z,34.45
2017-09-03T12:16:52.749Z,34.37
2017-09-03T12:19:19.264Z,34.36
2017-09-03T12:21:46.597Z,34.62
2017-09-03T12:24:12.935Z,34.45
2017-09-03T12:26:40.194Z,34.33
2017-09-03T12:29:06.626Z,34.76
2017-09-03T12:31:33.966Z,35.54
2017-09-03T12:36:31.672Z,36.00
2017-09-03T12:38:59.038Z,35.59
2017-09-03T12:41:25.452Z,35.73
2017-09-03T12:43:55.312Z,35.16
2017-09-03T12:46:21.672Z,36.41
2017-09-03T12:48:48.527Z,35.77
2017-09-03T12:51:14.989Z,35.21
2017-09-03T12:53:41.622Z,34.54
2017-09-03T12:58:50.450Z,34.69
2017-09-03T13:01:19.627Z,34.98
2017-09-03T13:03:45.970Z,34.36
2017-09-03T13:06:12.290Z,34.70
2017-09-03T13:08:38.644Z,34.76
2017-09-03T13:11:04.979Z,35.60
2017-09-03T13:13:31.392Z,35.44
2017-09-03T13:15:57.888Z,35.76
2017-09-03T13:18:24.183Z,35.65
2017-09-03T13:20:50.545Z,35.20
2017-09-03T13:23:17.051Z,36.14
2017-09-03T13:25:43.311Z,36.47
2017-09-03T13:28:10.567Z,36.91
2017-09-03T13:30:36.879Z,37.10
2017-09-03T13:33:03.461Z,37.58
2017-09-03T13:35:30.595Z,37.60
2017-09-03T13:37:56.881Z,38.05
2017-09-03T13:40:23.152Z,37.87
2017-09-03T13:42:49.428Z,37.68
2017-09-03T13:45:15.853Z,37.10
2017-09-03T13:47:42.934Z,36.99
2017-09-03T13:50:09.299Z,36.66
2017-09-03T13:52:35.599Z,36.97
2017-09-03T13:55:01.893Z,37.46
2017-09-03T13:57:28.191Z,37.39
2017-09-03T13:59:54.499Z,36.84
2017-09-03T14:02:20.792Z,37.45
2017-09-03T14:04:47.549Z,38.33
2017-09-03T14:07:13.894Z,37.61
2017-09-03T14:09:41.146Z,37.43
2017-09-03T14:12:07.496Z,38.05
2017-09-03T14:14:33.798Z,38.48
2017-09-03T14:16:59.995Z,38.44
2017-09-03T14:19:26.182Z,37.42
2017-09-03T14:21:52.381Z,36.72
2017-09-03T14:24:18.615Z,37.96
2017-09-03T14:26:44.840Z,38.33
2017-09-03T14:29:11.078Z,38.49
2017-09-03T14:31:37.336Z,38.56
2017-09-03T14:40:47.718Z,36.43
2017-09-03T14:43:13.944Z,36.03
2017-09-03T14:45:40.173Z,35.99
2017-09-03T14:48:06.400Z,35.78
2017-09-03T14:50:32.634Z,35.35
2017-09-03T14:52:58.867Z,35.55
2017-09-03T14:55:25.106Z,35.68
2017-09-03T14:57:51.338Z,36.48
2017-09-03T15:00:17.679Z,36.90
2017-09-03T15:02:43.904Z,36.53
2017-09-03T15:05:10.108Z,35.93
2017-09-03T15:07:36.357Z,36.64
2017-09-03T15:10:02.956Z,36.87
2017-09-03T15:12:29.227Z,36.93
2017-09-03T15:14:55.447Z,37.26
2017-09-03T15:17:21.681Z,37.11
2017-09-03T15:19:47.897Z,36.51
2017-09-03T15:22:14.120Z,36.91
2017-09-03T15:24:40.345Z,36.92
2017-09-03T15:27:06.650Z,36.36
2017-09-03T15:29:33.087Z,36.57
2017-09-03T15:31:59.373Z,36.52
2017-09-03T15:34:25.660Z,36.54
2017-09-03T15:36:52.306Z,36.16
2017-09-03T15:39:18.604Z,35.92
2017-09-03T15:41:44.917Z,35.66
2017-09-03T15:44:16.294Z,35.44
2017-09-03T15:46:42.627Z,35.08
2017-09-03T15:49:08.898Z,34.60
2017-09-03T15:51:35.206Z,33.66
2017-09-03T15:54:01.600Z,33.69
2017-09-03T15:56:27.934Z,33.72
2017-09-03T16:01:47.460Z,32.72
2017-09-03T16:04:13.881Z,32.51
2017-09-03T16:06:40.281Z,32.00
2017-09-03T16:09:06.740Z,31.37
2017-09-03T16:11:33.133Z,30.75
2017-09-03T16:13:59.446Z,30.13
2017-09-03T16:16:25.783Z,29.67
2017-09-03T16:18:52.065Z,29.33
2017-09-03T16:21:18.490Z,29.15
2017-09-03T16:23:46.779Z,28.94
2017-09-03T16:26:13.073Z,28.77
2017-09-03T16:28:39.389Z,28.52
2017-09-03T16:31:06.199Z,28.43
2017-09-03T16:33:32.579Z,28.33
2017-09-03T16:36:00.198Z,28.12
2017-09-03T16:38:26.762Z,28.00
2017-09-03T16:43:25.492Z,27.85
2017-09-03T16:45:52.031Z,27.72
2017-09-03T16:48:18.382Z,27.58
2017-09-03T16:50:44.643Z,27.55
2017-09-03T16:53:10.954Z,27.42
2017-09-03T16:55:37.277Z,27.29
2017-09-03T16:58:03.640Z,27.37
2017-09-03T17:00:29.968Z,27.31
2017-09-03T17:02:56.339Z,27.26
2017-09-03T17:05:22.668Z,27.33
2017-09-03T17:07:48.950Z,27.34
2017-09-03T17:10:15.201Z,27.21
2017-09-03T17:12:41.913Z,27.16
2017-09-03T17:15:08.358Z,27.09
2017-09-03T17:17:34.763Z,27.01
2017-09-03T17:20:01.630Z,26.96
2017-09-03T17:22:27.928Z,26.63
2017-09-03T17:25:05.410Z,26.45
2017-09-03T17:30:10.244Z,26.70
2017-09-03T17:32:36.508Z,26.49
2017-09-03T17:40:19.895Z,26.38
2017-09-03T17:42:47.119Z,26.38
2017-09-03T17:50:39.940Z,26.32
2017-09-03T17:53:07.256Z,26.22
2017-09-03T17:58:12.848Z,26.25
2017-09-03T18:03:30.997Z,25.84
2017-09-03T18:05:57.423Z,25.85
2017-09-03T18:08:23.676Z,25.86
2017-09-03T18:10:49.871Z,25.94
2017-09-03T18:13:16.060Z,25.86
2017-09-03T18:15:42.248Z,25.81
2017-09-03T18:18:08.405Z,25.37
2017-09-03T18:20:34.597Z,24.82
2017-09-03T18:23:00.845Z,24.24
2017-09-03T18:25:27.020Z,23.78
2017-09-03T18:27:53.273Z,23.25
2017-09-03T18:30:19.503Z,22.28
2017-09-03T18:32:45.805Z,21.72
2017-09-03T18:35:12.059Z,21.04
2017-09-03T18:37:38.294Z,20.35
2017-09-03T18:40:04.533Z,20.06
2017-09-03T18:42:30.755Z,19.69
2017-09-03T18:44:57.023Z,19.53
2017-09-03T18:47:23.389Z,19.39
2017-09-03T18:49:49.661Z,19.34
2017-09-03T18:52:15.893Z,19.31
2017-09-03T18:54:42.978Z,19.36
2017-09-03T18:57:09.285Z,19.31
2017-09-03T18:59:38.114Z,19.27
2017-09-03T19:02:04.511Z,19.23
2017-09-03T19:04:31.841Z,19.16
2017-09-03T19:06:58.235Z,19.09
2017-09-03T19:14:56.928Z,18.42
2017-09-03T19:17:23.129Z,18.17
2017-09-03T19:19:49.372Z,17.95
2017-09-03T19:22:15.604Z,17.83
2017-09-03T19:24:41.854Z,17.86
2017-09-03T19:27:08.055Z,17.93
2017-09-03T19:29:34.318Z,18.05
2017-09-03T19:32:00.655Z,17.96
2017-09-03T19:34:27.060Z,17.79
2017-09-03T19:36:53.396Z,17.87
2017-09-03T19:39:19.766Z,17.79
2017-09-03T19:41:46.127Z,17.85
2017-09-03T19:44:12.833Z,17.95
2017-09-03T19:46:41.041Z,17.95
2017-09-03T19:56:20.432Z,17.87
2017-09-03T20:02:57.683Z,17.60
2017-09-03T20:05:23.891Z,17.59
2017-09-03T20:07:50.137Z,17.56
2017-09-03T20:10:16.362Z,17.56
2017-09-03T20:12:42.546Z,17.62
2017-09-03T20:15:08.837Z,17.64
2017-09-03T20:27:32.789Z,17.60
2017-09-03T21:13:55.150Z,17.50
2017-09-03T21:16:21.445Z,17.52
2017-09-03T21:18:47.781Z,17.62
2017-09-03T21:21:14.021Z,17.68
2017-09-03T21:23:40.238Z,17.74
2017-09-03T21:26:06.510Z,17.74
2017-09-03T21:28:32.708Z,17.71
2017-09-03T21:30:59.057Z,17.76
2017-09-03T21:33:25.297Z,17.81
2017-09-03T21:35:51.496Z,17.79
2017-09-03T21:38:17.745Z,17.72
2017-09-03T21:40:43.960Z,17.70
2017-09-03T21:43:10.191Z,17.89
2017-09-03T21:45:36.468Z,17.89
2017-09-03T21:56:56.170Z,17.57
2017-09-03T21:59:22.404Z,17.60
2017-09-03T22:01:48.617Z,17.63
2017-09-03T22:04:14.793Z,17.68
2017-09-03T22:06:40.984Z,17.74
2017-09-03T22:09:07.195Z,17.71
2017-09-03T22:11:33.425Z,17.77
2017-09-03T22:13:59.666Z,17.92
2017-09-03T22:16:25.887Z,17.95
2017-09-03T22:18:52.124Z,17.92
2017-09-03T22:21:18.370Z,17.90
2017-09-03T22:23:44.574Z,17.89
2017-09-03T22:26:10.805Z,17.99
2017-09-03T22:28:37.044Z,18.01
2017-09-03T22:31:03.258Z,18.05
2017-09-03T22:33:29.510Z,18.17
2017-09-03T22:35:55.731Z,18.23
2017-09-03T22:38:21.967Z,18.28
2017-09-03T22:40:48.190Z,18.32
2017-09-03T22:43:14.426Z,18.29
2017-09-03T22:45:40.674Z,18.19
2017-09-03T22:48:06.873Z,18.17
2017-09-03T22:50:33.095Z,18.19
2017-09-03T22:52:59.338Z,18.24
2017-09-03T22:55:25.578Z,18.26
2017-09-03T22:57:51.790Z,18.26
2017-09-03T23:00:18.028Z,18.25
2017-09-03T23:02:44.259Z,18.16
2017-09-03T23:05:10.492Z,18.05
2017-09-03T23:07:36.729Z,17.85
2017-09-03T23:10:02.961Z,17.94
2017-09-03T23:12:29.192Z,17.99
2017-09-03T23:14:55.418Z,17.93
2017-09-03T23:17:21.653Z,18.01
2017-09-03T23:19:47.869Z,17.96
2017-09-03T23:22:14.102Z,17.99
2017-09-03T23:24:40.338Z,17.97
2017-09-03T23:27:06.551Z,17.97
2017-09-03T23:29:32.797Z,18.00
2017-09-03T23:31:59.032Z,17.94
2017-09-03T23:34:25.263Z,17.84
2017-09-03T23:36:51.492Z,17.77
2017-09-03T23:39:17.713Z,17.75
2017-09-03T23:41:43.943Z,17.80
2017-09-03T23:44:10.242Z,17.80
2017-09-03T23:46:36.507Z,17.80
2017-09-03T23:49:02.739Z,17.79
2017-09-03T23:51:28.969Z,17.84
2017-09-03T23:53:55.299Z,17.79
2017-09-03T23:56:21.569Z,17.72
2017-09-03T23:58:47.856Z,17.64
